Time;durP1;ratioP1;P1;durP2;ratioP2;P2;SDS_P1;SDS_P2;PMS_P1;PMS_P2;Temp;Humidity;BMP_temperature;BMP_pressure;BME280_temperature;BME280_humidity;BME280_pressure;Samples;Min_cycle;Max_cycle;Signal;HPM_P1;HPM_P2
2022/10/14 00:01:30;;;;;;;13.67;9.63;;;15.30;99.10;;;;;;5093289;28;20915;-74
2022/10/14 00:03:56;;;;;;;12.47;9.67;;;15.30;99.10;;;;;;5093279;28;20487;-74
2022/10/14 00:06:25;;;;;;;12.67;8.50;;;15.30;99.20;;;;;;5092134;28;20793;-74
2022/10/14 00:08:52;;;;;;;13.50;9.77;;;15.30;99.40;;;;;;5093079;28;20456;-74
2022/10/14 00:11:23;;;;;;;11.87;9.00;;;15.30;99.50;;;;;;5093370;28;20450;-74
2022/10/14 00:13:53;;;;;;;10.53;9.10;;;15.30;99.50;;;;;;5093268;28;20539;-74
2022/10/14 00:16:22;;;;;;;12.83;9.30;;;15.30;99.60;;;;;;5093406;28;20456;-73
2022/10/14 00:18:49;;;;;;;13.87;9.30;;;15.30;99.60;;;;;;5093196;28;20474;-73
2022/10/14 00:21:17;;;;;;;10.73;9.63;;;15.30;99.70;;;;;;5093231;28;20443;-73
2022/10/14 00:23:45;;;;;;;10.10;8.40;;;15.30;99.90;;;;;;5093283;28;20502;-71
2022/10/14 00:26:17;;;;;;;15.27;8.50;;;15.30;99.70;;;;;;5093328;28;20459;-71
2022/10/14 00:28:45;;;;;;;10.03;8.93;;;15.30;99.70;;;;;;5093493;28;20576;-71
2022/10/14 00:31:12;;;;;;;8.90;7.57;;;15.30;99.70;;;;;;5093323;28;20457;-71
2022/10/14 00:33:38;;;;;;;14.50;9.77;;;15.30;99.60;;;;;;5093306;28;20458;-72
2022/10/14 00:36:06;;;;;;;11.40;7.37;;;15.40;99.60;;;;;;5093220;28;20454;-72
2022/10/14 00:38:34;;;;;;;10.27;9.00;;;15.40;99.60;;;;;;5093005;28;20942;-73
2022/10/14 00:41:01;;;;;;;13.10;10.07;;;15.40;99.50;;;;;;5101768;28;20483;-72
2022/10/14 00:43:29;;;;;;;9.03;7.80;;;15.40;99.60;;;;;;5101667;28;20440;-72
2022/10/14 00:45:57;;;;;;;10.97;7.70;;;15.40;99.70;;;;;;5095698;28;20510;-72
2022/10/14 00:48:26;;;;;;;14.83;9.17;;;15.40;99.70;;;;;;5099206;28;20447;-72
2022/10/14 00:50:56;;;;;;;11.40;10.27;;;15.40;99.70;;;;;;5097228;28;20467;-72
2022/10/14 00:53:23;;;;;;;13.03;10.17;;;15.40;99.70;;;;;;5096828;28;20440;-72
2022/10/14 00:55:50;;;;;;;8.83;8.03;;;15.40;99.70;;;;;;5096572;28;20447;-72
2022/10/14 00:58:17;;;;;;;10.40;8.70;;;15.40;99.90;;;;;;5096569;28;20455;-73
2022/10/14 01:00:44;;;;;;;9.50;7.90;;;15.40;99.90;;;;;;5096037;28;20475;-74
2022/10/14 01:03:19;;;;;;;13.33;9.37;;;15.40;99.90;;;;;;5096580;28;20455;-73
2022/10/14 01:05:52;;;;;;;11.53;9.60;;;15.40;99.90;;;;;;5096367;28;20481;-74
2022/10/14 01:08:27;;;;;;;10.30;8.00;;;15.40;99.90;;;;;;5096090;28;20935;-73
2022/10/14 01:11:02;;;;;;;7.90;7.10;;;15.40;99.90;;;;;;5096316;28;20482;-73
2022/10/14 01:13:32;;;;;;;9.50;7.70;;;15.40;99.90;;;;;;5096056;28;20902;-73
2022/10/14 01:16:09;;;;;;;8.33;7.40;;;15.40;99.90;;;;;;5096190;28;20440;-73
2022/10/14 01:18:53;;;;;;;9.33;8.27;;;15.30;99.80;;;;;;5096915;28;20475;-73
2022/10/14 01:21:27;;;;;;;10.27;9.03;;;15.30;99.80;;;;;;5096099;28;20911;-74
2022/10/14 01:24:27;;;;;;;8.57;7.60;;;15.30;99.90;;;;;;5096149;28;20439;-73
2022/10/14 01:27:04;;;;;;;8.47;7.47;;;15.30;99.90;;;;;;5096101;28;20540;-73
2022/10/14 01:29:51;;;;;;;9.03;7.53;;;15.30;99.90;;;;;;5096047;28;20479;-73
2022/10/14 01:32:24;;;;;;;9.73;6.67;;;15.30;99.90;;;;;;5096239;28;20440;-73
2022/10/14 01:34:55;;;;;;;7.13;5.63;;;15.30;99.90;;;;;;5096001;28;20432;-73
2022/10/14 01:37:26;;;;;;;8.30;7.03;;;15.30;99.90;;;;;;5095715;28;20809;-73
2022/10/14 01:39:57;;;;;;;7.60;6.90;;;15.30;99.90;;;;;;5095704;28;20479;-73
2022/10/14 01:42:27;;;;;;;8.50;6.43;;;15.30;99.90;;;;;;5095963;28;20435;-73
2022/10/14 01:45:00;;;;;;;8.37;7.57;;;15.30;99.90;;;;;;5095528;28;20487;-74
2022/10/14 01:47:31;;;;;;;8.50;7.60;;;15.30;99.90;;;;;;5095700;28;20442;-73
2022/10/14 01:50:01;;;;;;;9.63;8.77;;;15.30;99.90;;;;;;5095878;28;20463;-74
2022/10/14 01:52:33;;;;;;;9.30;8.30;;;15.30;99.90;;;;;;5095760;28;20436;-73
2022/10/14 01:55:05;;;;;;;7.70;7.00;;;15.30;99.90;;;;;;5095114;28;20960;-73
2022/10/14 01:57:36;;;;;;;8.53;7.80;;;15.30;99.90;;;;;;5095953;28;20442;-73
2022/10/14 02:00:06;;;;;;;8.13;7.33;;;15.30;99.90;;;;;;5095187;28;20986;-73
2022/10/14 02:02:36;;;;;;;8.30;7.20;;;15.30;99.90;;;;;;5095688;28;20586;-73
2022/10/14 02:05:06;;;;;;;8.47;7.67;;;15.30;99.90;;;;;;5095902;28;20536;-73
2022/10/14 02:07:38;;;;;;;7.20;6.53;;;15.30;99.90;;;;;;5095313;28;20451;-73
2022/10/14 02:10:13;;;;;;;9.90;6.97;;;15.30;99.90;;;;;;5095191;28;20490;-73
2022/10/14 02:12:48;;;;;;;10.60;6.00;;;15.30;99.90;;;;;;5095704;28;20817;-73
2022/10/14 02:15:25;;;;;;;6.77;5.97;;;15.30;99.70;;;;;;5095006;28;20458;-74
2022/10/14 02:17:57;;;;;;;8.00;5.67;;;15.30;99.60;;;;;;5094825;28;20938;-73
2022/10/14 02:20:29;;;;;;;6.27;5.67;;;15.30;99.50;;;;;;5095004;28;20471;-74
2022/10/14 02:23:00;;;;;;;6.93;6.10;;;15.30;99.40;;;;;;5095084;28;20442;-74
2022/10/14 02:25:30;;;;;;;7.40;6.50;;;15.40;99.50;;;;;;5094833;28;20482;-73
2022/10/14 02:27:58;;;;;;;6.97;5.50;;;15.40;99.50;;;;;;5095008;28;20436;-73
2022/10/14 02:30:30;;;;;;;12.70;5.53;;;15.40;99.60;;;;;;5094776;28;20482;-73
2022/10/14 02:33:00;;;;;;;6.57;4.83;;;15.40;99.80;;;;;;5094647;28;20808;-73
2022/10/14 02:35:28;;;;;;;6.03;5.17;;;15.30;99.80;;;;;;5094627;28;20450;-73
2022/10/14 02:37:57;;;;;;;6.67;6.07;;;15.40;99.80;;;;;;5094656;28;20454;-72
2022/10/14 02:40:30;;;;;;;7.07;5.83;;;15.30;99.80;;;;;;5094428;28;20487;-72
2022/10/14 02:42:58;;;;;;;7.60;5.97;;;15.30;99.90;;;;;;5094567;28;20519;-71
2022/10/14 02:45:25;;;;;;;6.13;5.53;;;15.30;99.90;;;;;;5094545;28;20486;-71
2022/10/14 02:47:53;;;;;;;6.60;5.60;;;15.30;99.90;;;;;;5094294;28;20880;-71
2022/10/14 02:50:20;;;;;;;6.00;5.20;;;15.30;99.90;;;;;;5094062;28;20853;-71
2022/10/14 02:52:47;;;;;;;6.97;5.00;;;15.30;99.90;;;;;;5094080;28;20832;-72
2022/10/14 02:55:14;;;;;;;8.90;5.10;;;15.30;99.90;;;;;;5094430;28;20454;-72
2022/10/14 02:57:41;;;;;;;6.33;5.73;;;15.30;99.90;;;;;;5094332;28;20455;-73
2022/10/14 03:00:09;;;;;;;6.10;5.10;;;15.30;99.90;;;;;;5093954;28;21009;-73
2022/10/14 03:02:35;;;;;;;7.67;5.53;;;15.30;99.90;;;;;;5093983;28;20803;-73
2022/10/14 03:05:04;;;;;;;5.40;4.67;;;15.30;99.90;;;;;;5094127;28;20482;-72
2022/10/14 03:07:31;;;;;;;6.00;5.07;;;15.30;99.90;;;;;;5094148;28;20460;-73
2022/10/14 03:09:58;;;;;;;6.47;4.73;;;15.30;99.90;;;;;;5093842;28;20985;-73
2022/10/14 03:12:25;;;;;;;6.47;5.10;;;15.30;99.90;;;;;;5093631;28;20451;-73
2022/10/14 03:14:52;;;;;;;6.33;5.17;;;15.30;99.90;;;;;;5093989;28;20461;-73
2022/10/14 03:17:18;;;;;;;12.03;6.80;;;15.30;99.90;;;;;;5094074;28;20483;-73
2022/10/14 03:19:45;;;;;;;6.40;5.80;;;15.40;99.90;;;;;;5093837;28;20467;-73
2022/10/14 03:22:13;;;;;;;6.63;6.03;;;15.30;99.90;;;;;;5093723;28;20983;-73
2022/10/14 03:24:40;;;;;;;7.10;5.87;;;15.30;99.90;;;;;;5093847;28;20449;-73
2022/10/14 03:27:07;;;;;;;7.70;5.60;;;15.30;99.90;;;;;;5093979;28;20817;-74
2022/10/14 03:29:33;;;;;;;6.50;5.90;;;15.30;99.90;;;;;;5093569;28;20477;-73
2022/10/14 03:32:01;;;;;;;7.37;6.30;;;15.30;99.90;;;;;;5093874;28;20447;-73
2022/10/14 03:34:28;;;;;;;6.83;6.23;;;15.30;99.90;;;;;;5093491;28;20438;-72
2022/10/14 03:36:54;;;;;;;7.17;5.70;;;15.20;99.90;;;;;;5093896;28;20449;-72
2022/10/14 03:39:23;;;;;;;7.07;6.47;;;15.20;99.90;;;;;;5093787;28;20467;-72
2022/10/14 03:41:49;;;;;;;8.17;7.37;;;15.20;99.90;;;;;;5093737;28;20463;-72
2022/10/14 03:44:16;;;;;;;7.63;6.97;;;15.20;99.90;;;;;;5093365;28;20999;-72
2022/10/14 03:46:43;;;;;;;6.90;6.30;;;15.20;99.90;;;;;;5093688;28;20487;-72
2022/10/14 03:49:10;;;;;;;7.37;6.60;;;15.20;99.90;;;;;;5093882;28;20471;-72
2022/10/14 03:51:37;;;;;;;6.43;5.80;;;15.10;99.90;;;;;;5094454;28;20447;-72
2022/10/14 03:54:03;;;;;;;10.73;6.87;;;15.10;99.90;;;;;;5100375;28;20937;-72
2022/10/14 03:56:31;;;;;;;6.80;6.10;;;15.10;99.90;;;;;;5096151;28;20450;-72
2022/10/14 03:58:58;;;;;;;7.87;7.17;;;15.10;99.90;;;;;;5094286;28;20436;-73
2022/10/14 04:01:25;;;;;;;7.23;6.50;;;15.10;99.90;;;;;;5093751;28;20455;-73
2022/10/14 04:03:52;;;;;;;8.80;8.00;;;15.00;99.90;;;;;;5093537;28;20447;-71
2022/10/14 04:06:18;;;;;;;7.90;7.13;;;15.00;99.90;;;;;;5093383;28;20839;-70
2022/10/14 04:08:45;;;;;;;9.20;8.40;;;15.00;99.90;;;;;;5093418;28;20443;-71
2022/10/14 04:11:12;;;;;;;8.63;7.80;;;15.00;99.90;;;;;;5093484;28;20798;-72
2022/10/14 04:13:40;;;;;;;7.27;6.57;;;15.00;99.90;;;;;;5093188;28;20977;-72
2022/10/14 04:16:08;;;;;;;8.07;6.67;;;15.00;99.90;;;;;;5093280;28;20454;-72
2022/10/14 04:18:36;;;;;;;6.70;6.20;;;15.00;99.90;;;;;;5093332;28;20481;-72
2022/10/14 04:21:05;;;;;;;7.87;6.87;;;15.00;99.90;;;;;;5092922;28;20982;-72
2022/10/14 04:23:32;;;;;;;7.80;7.10;;;15.00;99.90;;;;;;5094962;28;20462;-73
2022/10/14 04:26:02;;;;;;;7.10;6.50;;;15.00;99.90;;;;;;5096823;28;20988;-72
2022/10/14 04:28:29;;;;;;;6.47;5.90;;;15.00;99.90;;;;;;5097276;28;20482;-72
2022/10/14 04:30:57;;;;;;;7.33;6.60;;;15.00;99.90;;;;;;5097001;28;20539;-72
2022/10/14 04:33:24;;;;;;;5.43;4.93;;;15.00;99.90;;;;;;5097292;28;20462;-72
2022/10/14 04:35:56;;;;;;;7.90;5.57;;;15.00;99.90;;;;;;5096691;28;20485;-73
2022/10/14 04:38:23;;;;;;;6.77;6.07;;;15.00;99.90;;;;;;5097083;28;20438;-73
2022/10/14 04:40:49;;;;;;;5.83;4.33;;;15.10;99.90;;;;;;5096736;28;20487;-73
2022/10/14 04:43:16;;;;;;;7.23;5.43;;;15.10;99.90;;;;;;5096928;28;20829;-73
2022/10/14 04:45:43;;;;;;;6.27;5.77;;;15.10;99.90;;;;;;5096877;28;20485;-73
2022/10/14 04:48:11;;;;;;;5.80;5.30;;;15.10;99.90;;;;;;5096903;28;20455;-74
2022/10/14 04:50:38;;;;;;;5.20;4.70;;;15.10;99.90;;;;;;5096802;28;20486;-74
2022/10/14 04:53:04;;;;;;;5.50;5.00;;;15.20;99.90;;;;;;5096859;28;20453;-73
2022/10/14 04:55:31;;;;;;;5.37;4.87;;;15.20;99.90;;;;;;5097309;28;20454;-73
2022/10/14 04:57:58;;;;;;;5.40;4.90;;;15.20;99.90;;;;;;5096788;28;20451;-73
2022/10/14 05:00:24;;;;;;;7.20;5.13;;;15.20;99.90;;;;;;5096455;28;20871;-73
2022/10/14 05:02:51;;;;;;;5.60;5.07;;;15.30;99.90;;;;;;5096726;28;20438;-74
2022/10/14 05:05:19;;;;;;;6.97;4.93;;;15.30;99.90;;;;;;5096501;28;20441;-73
2022/10/14 05:07:46;;;;;;;5.47;4.93;;;15.30;99.90;;;;;;5096364;28;20435;-73
2022/10/14 05:10:13;;;;;;;6.73;6.03;;;15.30;99.90;;;;;;5095809;28;20466;-73
2022/10/14 05:12:40;;;;;;;6.20;5.60;;;15.30;99.90;;;;;;5096476;28;20440;-73
2022/10/14 05:15:08;;;;;;;5.63;4.87;;;15.30;99.90;;;;;;5096158;28;20435;-73
2022/10/14 05:17:36;;;;;;;7.33;5.40;;;15.30;99.90;;;;;;5096207;28;20825;-74
2022/10/14 05:20:03;;;;;;;6.63;5.97;;;15.30;99.90;;;;;;5096036;28;20475;-74
2022/10/14 05:22:31;;;;;;;7.13;6.17;;;15.30;99.90;;;;;;5096280;28;20442;-74
2022/10/14 05:24:58;;;;;;;5.43;4.90;;;15.40;99.90;;;;;;5096440;28;20443;-71
2022/10/14 05:27:25;;;;;;;7.33;6.70;;;15.40;99.90;;;;;;5096272;28;20490;-71
2022/10/14 05:29:51;;;;;;;8.70;6.43;;;15.40;99.90;;;;;;5096060;28;20482;-72
2022/10/14 05:32:18;;;;;;;9.80;6.20;;;15.40;99.90;;;;;;5096088;28;20849;-72
2022/10/14 05:34:45;;;;;;;7.20;6.53;;;15.40;99.90;;;;;;5095498;28;20448;-72
2022/10/14 05:37:12;;;;;;;6.90;6.30;;;15.40;99.90;;;;;;5095845;28;20431;-72
2022/10/14 05:39:40;;;;;;;7.73;7.03;;;15.40;99.90;;;;;;5095916;28;20811;-72
2022/10/14 05:42:06;;;;;;;7.53;6.83;;;15.40;99.90;;;;;;5096121;28;20428;-72
2022/10/14 05:44:33;;;;;;;8.40;7.60;;;15.40;99.90;;;;;;5096405;28;20436;-72
2022/10/14 05:47:00;;;;;;;8.23;7.13;;;15.40;99.90;;;;;;5095763;28;20474;-72
2022/10/14 05:49:27;;;;;;;8.67;7.87;;;15.40;99.90;;;;;;5095657;28;20841;-72
2022/10/14 05:51:53;;;;;;;9.23;8.33;;;15.40;99.90;;;;;;5095831;28;20432;-72
2022/10/14 05:54:20;;;;;;;8.47;7.67;;;15.40;99.90;;;;;;5095357;28;20447;-72
2022/10/14 05:56:48;;;;;;;10.77;9.20;;;15.40;99.90;;;;;;5095669;28;20457;-72
2022/10/14 05:59:15;;;;;;;8.10;7.30;;;15.40;99.90;;;;;;5095451;28;20476;-73
2022/10/14 06:01:42;;;;;;;9.43;8.47;;;15.40;99.90;;;;;;5095800;28;20810;-73
2022/10/14 06:04:15;;;;;;;11.30;10.27;;;15.50;99.90;;;;;;5097162;28;20443;-72
2022/10/14 06:06:42;;;;;;;11.77;10.67;;;15.50;99.90;;;;;;5097185;28;20472;-72
2022/10/14 06:09:09;;;;;;;10.70;9.73;;;15.50;99.90;;;;;;5096271;28;20824;-72
2022/10/14 06:11:36;;;;;;;9.70;8.53;;;15.50;99.90;;;;;;5096527;28;20462;-72
2022/10/14 06:14:04;;;;;;;11.10;9.63;;;15.50;99.90;;;;;;5095332;28;20961;-72
2022/10/14 06:16:31;;;;;;;9.00;8.17;;;15.50;99.90;;;;;;5094717;28;20799;-71
2022/10/14 06:18:57;;;;;;;9.17;8.27;;;15.50;99.90;;;;;;5094854;28;20937;-70
2022/10/14 06:21:25;;;;;;;13.13;9.77;;;15.50;99.90;;;;;;5095877;28;20441;-70
2022/10/14 06:23:51;;;;;;;11.50;10.33;;;15.50;99.90;;;;;;5094875;28;20942;-71
2022/10/14 06:26:18;;;;;;;13.30;9.73;;;15.50;99.90;;;;;;5094629;28;20847;-70
2022/10/14 06:28:45;;;;;;;8.60;7.80;;;15.50;99.90;;;;;;5093742;28;20428;-71
2022/10/14 06:31:13;;;;;;;9.07;8.30;;;15.50;99.90;;;;;;5094701;28;20939;-71
2022/10/14 06:33:42;;;;;;;9.77;8.77;;;15.50;99.90;;;;;;5095602;28;20455;-75
2022/10/14 06:36:10;;;;;;;9.33;8.33;;;15.60;99.90;;;;;;5095750;28;20539;-72
2022/10/14 06:38:37;;;;;;;7.63;6.87;;;15.60;99.90;;;;;;5095157;28;21014;-73
2022/10/14 06:41:04;;;;;;;12.33;8.00;;;15.60;99.90;;;;;;5094813;28;20483;-73
2022/10/14 06:43:31;;;;;;;7.90;7.20;;;15.60;99.90;;;;;;5094851;28;20452;-74
2022/10/14 06:45:58;;;;;;;8.40;7.60;;;15.60;99.90;;;;;;5102047;28;20480;-74
2022/10/14 06:48:26;;;;;;;10.87;9.27;;;15.60;99.90;;;;;;5116045;28;20440;-74
2022/10/14 06:50:53;;;;;;;8.87;8.00;;;15.60;99.90;;;;;;5108964;28;20974;-74
2022/10/14 06:53:20;;;;;;;8.80;7.90;;;15.70;99.90;;;;;;5111779;28;20440;-74
2022/10/14 06:55:47;;;;;;;8.63;7.80;;;15.70;99.90;;;;;;5113023;28;20466;-74
2022/10/14 06:58:14;;;;;;;7.90;7.10;;;15.70;99.90;;;;;;5110254;28;20456;-74
2022/10/14 07:00:41;;;;;;;8.60;7.10;;;15.70;99.90;;;;;;5102555;28;20474;-74
2022/10/14 07:03:08;;;;;;;8.03;7.30;;;15.70;99.90;;;;;;5095767;28;20460;-74
2022/10/14 07:05:36;;;;;;;6.97;6.10;;;15.70;99.90;;;;;;5082227;28;20463;-74
2022/10/14 07:08:03;;;;;;;5.90;4.97;;;15.70;99.90;;;;;;5083216;28;20487;-75
2022/10/14 07:10:30;;;;;;;5.63;5.10;;;15.70;99.90;;;;;;5079030;28;20475;-74
2022/10/14 07:12:57;;;;;;;7.07;4.60;;;15.70;99.90;;;;;;5083206;28;20468;-72
2022/10/14 07:15:23;;;;;;;5.03;4.53;;;15.70;99.90;;;;;;5083895;28;20460;-72
2022/10/14 07:17:50;;;;;;;4.43;4.03;;;15.70;99.90;;;;;;5077104;28;20457;-73
2022/10/14 07:20:17;;;;;;;3.83;3.37;;;15.80;99.90;;;;;;5076896;28;20475;-73
2022/10/14 07:22:45;;;;;;;4.63;4.23;;;15.80;99.90;;;;;;5083155;28;20448;-73
2022/10/14 07:25:12;;;;;;;4.60;3.67;;;15.80;99.90;;;;;;5084853;28;20429;-73
2022/10/14 07:27:38;;;;;;;6.93;3.87;;;15.80;99.90;;;;;;5095126;28;20468;-74
2022/10/14 07:30:06;;;;;;;7.80;3.77;;;15.90;99.90;;;;;;5097967;28;20482;-75
2022/10/14 07:32:35;;;;;;;3.50;3.20;;;16.00;99.90;;;;;;5100490;28;20507;-75
2022/10/14 07:35:02;;;;;;;3.50;3.00;;;15.90;99.90;;;;;;5099617;28;20467;-75
2022/10/14 07:37:29;;;;;;;3.13;2.90;;;16.00;99.90;;;;;;5108093;28;20484;-75
2022/10/14 07:39:57;;;;;;;2.60;2.20;;;16.00;99.90;;;;;;5096934;28;21019;-75
2022/10/14 07:42:24;;;;;;;3.30;3.10;;;16.00;99.90;;;;;;5110154;28;20432;-75
2022/10/14 07:44:52;;;;;;;4.50;3.00;;;16.00;99.90;;;;;;5088443;28;20468;-75
2022/10/14 07:47:20;;;;;;;3.20;2.53;;;16.10;99.90;;;;;;5085200;28;20475;-74
2022/10/14 07:49:47;;;;;;;5.27;3.97;;;16.20;99.90;;;;;;5082902;28;20509;-75
2022/10/14 07:52:14;;;;;;;3.60;3.30;;;16.20;99.90;;;;;;5076757;28;20465;-76
2022/10/14 07:54:41;;;;;;;4.13;3.60;;;16.30;99.90;;;;;;5100650;28;20452;-75
2022/10/14 07:57:10;;;;;;;4.23;3.83;;;16.40;99.90;;;;;;5089531;28;20504;-74
2022/10/14 07:59:37;;;;;;;5.30;4.13;;;16.50;99.80;;;;;;5091813;28;20484;-75
2022/10/14 08:02:04;;;;;;;5.00;4.60;;;16.50;99.80;;;;;;5099660;28;20460;-75
2022/10/14 08:04:31;;;;;;;5.40;4.97;;;16.50;99.80;;;;;;5098103;28;20439;-74
2022/10/14 08:06:58;;;;;;;4.90;4.27;;;16.60;99.60;;;;;;5093646;28;20484;-74
2022/10/14 08:09:25;;;;;;;5.13;4.50;;;16.70;99.60;;;;;;5078073;28;20468;-72
2022/10/14 08:11:52;;;;;;;5.37;4.37;;;16.70;99.30;;;;;;5080340;28;20831;-74
2022/10/14 08:14:20;;;;;;;4.30;3.70;;;16.80;99.40;;;;;;5094240;28;20456;-74
2022/10/14 08:16:47;;;;;;;7.57;4.57;;;16.80;99.60;;;;;;5080457;28;20457;-74
2022/10/14 08:19:14;;;;;;;5.37;4.10;;;16.90;99.10;;;;;;5084287;28;20519;-73
2022/10/14 08:21:41;;;;;;;4.07;3.77;;;16.90;98.90;;;;;;5117477;28;20448;-73
2022/10/14 08:24:08;;;;;;;5.27;4.23;;;17.00;98.50;;;;;;5115150;28;20461;-74
2022/10/14 08:26:37;;;;;;;5.80;4.80;;;17.00;98.50;;;;;;5095040;28;20467;-74
2022/10/14 08:29:06;;;;;;;7.70;4.77;;;17.00;98.40;;;;;;5095760;28;20467;-73
2022/10/14 08:31:35;;;;;;;5.80;5.07;;;17.10;98.30;;;;;;5110903;28;20482;-74
2022/10/14 08:34:02;;;;;;;7.20;6.30;;;17.10;97.90;;;;;;5095705;28;20472;-74
2022/10/14 08:36:29;;;;;;;5.50;5.00;;;17.00;97.70;;;;;;5094001;28;20435;-73
2022/10/14 08:38:56;;;;;;;7.10;6.60;;;17.00;97.70;;;;;;5089208;28;20459;-73
2022/10/14 08:41:39;;;;;;;6.77;6.10;;;17.10;97.60;;;;;;5100165;28;20475;-73
2022/10/14 08:44:14;;;;;;;7.10;6.43;;;17.00;97.60;;;;;;5101357;28;20437;-73
2022/10/14 08:46:50;;;;;;;7.27;6.33;;;17.00;97.70;;;;;;5095621;28;20468;-73
2022/10/14 08:49:23;;;;;;;6.07;5.57;;;17.10;97.90;;;;;;5098441;28;20472;-74
2022/10/14 08:51:55;;;;;;;7.63;6.93;;;17.20;97.90;;;;;;5096449;28;20437;-74
2022/10/14 08:54:32;;;;;;;7.53;5.87;;;17.30;97.80;;;;;;5097237;28;20456;-74
2022/10/14 08:56:59;;;;;;;11.83;7.07;;;17.40;97.80;;;;;;5097621;28;20452;-74
2022/10/14 08:59:27;;;;;;;6.23;5.60;;;17.40;97.70;;;;;;5098991;28;20499;-74
2022/10/14 09:01:59;;;;;;;6.57;5.97;;;17.50;97.50;;;;;;5101538;28;20999;-74
2022/10/14 09:04:26;;;;;;;7.43;6.73;;;17.60;97.40;;;;;;5101111;28;20488;-74
2022/10/14 09:06:54;;;;;;;8.03;7.27;;;17.70;97.30;;;;;;5093630;28;21015;-73
2022/10/14 09:09:26;;;;;;;9.40;8.60;;;17.70;97.10;;;;;;5087021;28;20461;-74
2022/10/14 09:11:57;;;;;;;9.13;8.37;;;17.80;97.00;;;;;;5095335;28;20453;-74
2022/10/14 09:14:27;;;;;;;10.00;9.10;;;17.80;96.70;;;;;;5102588;28;20463;-74
2022/10/14 09:16:59;;;;;;;8.50;7.07;;;17.80;96.70;;;;;;5096304;28;20461;-74
2022/10/14 09:19:31;;;;;;;8.70;7.90;;;17.70;96.80;;;;;;5092378;28;20492;-74
2022/10/14 09:21:59;;;;;;;8.77;7.87;;;17.70;96.80;;;;;;5103694;28;20459;-74
2022/10/14 09:24:29;;;;;;;11.30;9.30;;;17.80;97.00;;;;;;5089719;28;20839;-74
2022/10/14 09:26:59;;;;;;;10.10;8.47;;;17.80;97.20;;;;;;5086809;28;20487;-74
2022/10/14 09:29:28;;;;;;;9.40;7.97;;;17.80;97.00;;;;;;5102391;28;20495;-74
2022/10/14 09:31:58;;;;;;;11.77;10.40;;;17.90;96.90;;;;;;5100738;28;20464;-74
2022/10/14 09:34:31;;;;;;;9.77;8.87;;;17.90;96.90;;;;;;5113641;28;20440;-74
2022/10/14 09:37:17;;;;;;;9.93;9.03;;;18.00;96.60;;;;;;5089949;28;20449;-74
2022/10/14 09:39:45;;;;;;;10.20;9.20;;;18.10;96.50;;;;;;5084886;28;20480;-74
2022/10/14 09:42:18;;;;;;;10.40;8.70;;;18.30;96.50;;;;;;5093616;28;20459;-73
2022/10/14 09:44:45;;;;;;;10.47;9.57;;;18.30;96.40;;;;;;5095377;28;20491;-74
2022/10/14 09:47:17;;;;;;;10.00;9.03;;;18.40;96.20;;;;;;5092485;28;20488;-74
2022/10/14 09:49:47;;;;;;;8.57;7.80;;;18.40;95.90;;;;;;5098351;28;20498;-74
2022/10/14 09:52:22;;;;;;;9.03;8.23;;;18.40;95.80;;;;;;5097304;28;20524;-74
2022/10/14 09:54:54;;;;;;;12.80;11.60;;;18.40;95.30;;;;;;5092794;28;20457;-74
2022/10/14 09:57:21;;;;;;;9.87;8.97;;;18.40;95.30;;;;;;5101233;28;20456;-74
2022/10/14 09:59:53;;;;;;;10.10;9.10;;;18.40;95.20;;;;;;5103951;28;20473;-74
2022/10/14 10:02:24;;;;;;;12.00;10.90;;;18.30;95.20;;;;;;5091125;28;20460;-74
2022/10/14 10:04:53;;;;;;;11.20;10.30;;;18.30;95.30;;;;;;5093206;28;20456;-74
2022/10/14 10:07:29;;;;;;;11.30;10.23;;;18.30;95.50;;;;;;5108681;28;21006;-74
2022/10/14 10:09:56;;;;;;;11.00;10.00;;;18.20;95.70;;;;;;5091393;28;20480;-74
2022/10/14 10:12:25;;;;;;;10.50;9.40;;;18.20;95.60;;;;;;5102051;28;20478;-74
2022/10/14 10:14:57;;;;;;;15.63;9.63;;;18.10;95.60;;;;;;5096297;28;20448;-73
2022/10/14 10:17:27;;;;;;;12.47;9.40;;;18.10;95.80;;;;;;5095445;28;20490;-72
2022/10/14 10:20:11;;;;;;;13.57;12.27;;;18.10;95.90;;;;;;5092949;28;20483;-72
2022/10/14 10:22:38;;;;;;;14.40;10.30;;;18.10;96.30;;;;;;5097518;28;20460;-72
2022/10/14 10:25:27;;;;;;;11.20;10.10;;;18.00;96.90;;;;;;5098750;28;20457;-71
2022/10/14 10:27:57;;;;;;;12.90;10.10;;;18.00;96.70;;;;;;5087733;28;20472;-73
2022/10/14 10:30:27;;;;;;;10.53;9.50;;;18.00;96.70;;;;;;5089328;28;20488;-73
2022/10/14 10:33:14;;;;;;;8.70;7.90;;;18.00;96.80;;;;;;5112446;28;20435;-72
2022/10/14 10:35:55;;;;;;;7.43;6.73;;;18.00;97.10;;;;;;5105394;28;20463;-73
2022/10/14 10:38:25;;;;;;;9.43;8.47;;;18.00;97.20;;;;;;5099996;28;20453;-72
2022/10/14 10:41:09;;;;;;;8.57;7.77;;;18.00;97.30;;;;;;5096693;28;20494;-73
2022/10/14 10:44:00;;;;;;;8.40;7.60;;;18.00;97.50;;;;;;5101328;28;20457;-73
2022/10/14 10:46:44;;;;;;;10.00;9.10;;;18.00;97.50;;;;;;5095315;28;20471;-73
2022/10/14 10:49:20;;;;;;;9.90;8.90;;;18.00;97.50;;;;;;5092442;28;20489;-73
2022/10/14 10:51:53;;;;;;;10.90;9.80;;;17.90;97.60;;;;;;5086830;28;20465;-73
2022/10/14 10:54:34;;;;;;;8.90;8.10;;;17.90;97.80;;;;;;5085993;28;20467;-73
2022/10/14 10:57:10;;;;;;;10.07;9.07;;;17.80;97.80;;;;;;5090892;28;20897;-71
2022/10/14 10:59:56;;;;;;;8.70;7.80;;;17.80;97.80;;;;;;5104585;28;20467;-70
2022/10/14 11:02:53;;;;;;;9.73;7.13;;;17.80;97.80;;;;;;5105443;28;20522;-71
2022/10/14 11:05:46;;;;;;;9.20;8.40;;;17.80;97.80;;;;;;5101290;28;20424;-73
2022/10/14 11:14:20;;;;;;;9.87;8.70;;;17.90;97.80;;;;;;5102591;28;20416;-72
2022/10/14 11:16:55;;;;;;;11.50;9.70;;;18.00;97.80;;;;;;5083893;28;20465;-72
2022/10/14 11:19:28;;;;;;;10.63;9.60;;;18.00;97.90;;;;;;5092317;28;20506;-72
2022/10/14 11:22:03;;;;;;;11.83;10.07;;;17.90;98.00;;;;;;5101345;28;20448;-72
2022/10/14 11:24:38;;;;;;;10.67;9.77;;;17.90;98.30;;;;;;5100125;28;20959;-72
2022/10/14 11:27:11;;;;;;;11.17;10.10;;;17.90;98.40;;;;;;5089665;28;20456;-72
2022/10/14 11:30:05;;;;;;;9.63;8.73;;;18.00;98.60;;;;;;5091513;28;20476;-73
2022/10/14 11:32:40;;;;;;;8.80;8.00;;;17.90;98.60;;;;;;5109686;28;20448;-73
2022/10/14 11:35:23;;;;;;;8.80;8.00;;;18.00;98.60;;;;;;5097966;28;20456;-73
2022/10/14 11:38:03;;;;;;;11.03;7.90;;;18.00;98.50;;;;;;5087183;28;20453;-73
2022/10/14 11:40:37;;;;;;;8.17;6.97;;;18.10;98.50;;;;;;5101010;28;20475;-73
2022/10/14 11:43:15;;;;;;;10.00;9.00;;;18.10;98.40;;;;;;5097388;28;20471;-73
2022/10/14 11:45:51;;;;;;;9.77;8.47;;;18.20;98.30;;;;;;5097625;28;20443;-74
2022/10/14 11:48:30;;;;;;;10.47;8.83;;;18.20;98.30;;;;;;5108304;28;20482;-72
2022/10/14 11:51:04;;;;;;;9.57;8.67;;;18.30;98.30;;;;;;5094701;28;20488;-72
2022/10/14 11:53:44;;;;;;;11.43;10.10;;;18.30;98.30;;;;;;5093181;28;20977;-73
2022/10/14 11:56:22;;;;;;;8.23;7.37;;;18.30;98.30;;;;;;5108391;28;20463;-73
2022/10/14 11:58:51;;;;;;;9.20;7.70;;;18.30;98.50;;;;;;5103728;28;20481;-73
2022/10/14 12:01:23;;;;;;;8.60;6.40;;;18.20;98.40;;;;;;5099424;28;20468;-73
2022/10/14 12:03:58;;;;;;;7.23;5.40;;;18.30;98.20;;;;;;5107274;28;20862;-74
2022/10/14 12:06:30;;;;;;;6.90;6.30;;;18.20;98.20;;;;;;5110358;28;20460;-74
2022/10/14 12:09:02;;;;;;;8.27;6.27;;;18.20;98.10;;;;;;5107589;28;20562;-74
2022/10/14 12:11:34;;;;;;;6.43;5.83;;;18.10;98.30;;;;;;5099594;28;20461;-74
2022/10/14 12:14:07;;;;;;;6.90;5.70;;;18.10;98.80;;;;;;5090242;28;20449;-73
2022/10/14 12:16:41;;;;;;;5.80;5.30;;;18.10;98.40;;;;;;5078039;28;20452;-71
2022/10/14 12:19:10;;;;;;;6.40;4.93;;;18.10;98.50;;;;;;5083492;28;20967;-70
2022/10/14 12:21:46;;;;;;;7.93;5.57;;;18.10;98.40;;;;;;5105494;28;20461;-72
2022/10/14 12:24:18;;;;;;;5.60;4.90;;;18.20;98.50;;;;;;5101697;28;20468;-71
2022/10/14 12:26:54;;;;;;;7.40;4.80;;;18.10;98.60;;;;;;5088739;28;20464;-70
2022/10/14 12:29:23;;;;;;;9.60;5.73;;;18.10;98.80;;;;;;5088511;28;20491;-71
2022/10/14 12:32:05;;;;;;;6.23;5.73;;;18.10;98.90;;;;;;5104146;28;20478;-71
2022/10/14 12:34:35;;;;;;;7.47;6.20;;;18.10;98.90;;;;;;5089954;28;20472;-71
2022/10/14 12:37:44;;;;;;;6.47;5.87;;;18.10;99.10;;;;;;5098250;28;20467;-70
2022/10/14 12:40:26;;;;;;;7.27;6.60;;;18.00;99.30;;;;;;5101221;28;20500;-71
2022/10/14 12:43:03;;;;;;;8.57;6.17;;;18.00;99.40;;;;;;5090186;28;20421;-71
2022/10/14 12:45:31;;;;;;;8.10;7.00;;;18.00;99.50;;;;;;5092652;28;20483;-70
2022/10/14 12:48:07;;;;;;;8.37;6.80;;;18.00;99.70;;;;;;5090427;28;20555;-70
2022/10/14 12:50:37;;;;;;;9.10;6.93;;;18.00;99.90;;;;;;5093063;28;20484;-71
2022/10/14 12:53:06;;;;;;;7.17;6.50;;;17.90;99.90;;;;;;5105775;28;20455;-71
2022/10/14 12:55:48;;;;;;;8.37;6.30;;;17.90;99.90;;;;;;5098508;28;20461;-71
2022/10/14 12:58:30;;;;;;;8.53;6.77;;;17.90;99.90;;;;;;5090652;28;20467;-72
2022/10/14 13:01:01;;;;;;;7.53;6.83;;;17.80;99.90;;;;;;5089169;28;20486;-72
2022/10/14 13:03:32;;;;;;;8.30;7.50;;;17.80;99.90;;;;;;5092656;28;20447;-72
2022/10/14 13:06:35;;;;;;;8.00;6.90;;;17.70;99.90;;;;;;5106455;28;20424;-72